Time;durP1;ratioP1;P1;durP2;ratioP2;P2;SDS_P1;SDS_P2;PMS_P1;PMS_P2;Temp;Humidity;BMP_temperature;BMP_pressure;BME280_temperature;BME280_humidity;BME280_pressure;Samples;Min_cycle;Max_cycle;Signal;HPM_P1;HPM_P2
2022/08/05 00:01:19;;;;;;;12.38;8.52;;;;;;;18.33;95.38;101485.00;5113642;28;20031;-72
2022/08/05 00:03:46;;;;;;;15.30;8.40;;;;;;;18.34;94.65;101481.44;5113636;28;20027;-72
2022/08/05 00:06:11;;;;;;;13.05;8.73;;;;;;;18.33;93.01;101485.00;5113753;28;20027;-73
2022/08/05 00:08:37;;;;;;;13.45;8.82;;;;;;;18.39;95.75;101481.88;5113505;28;20482;-77
2022/08/05 00:11:05;;;;;;;17.45;8.50;;;;;;;18.34;94.94;101476.19;5113734;28;20020;-76
2022/08/05 00:13:33;;;;;;;18.00;9.27;;;;;;;18.45;92.74;101491.78;5113470;28;20023;-72
2022/08/05 00:15:58;;;;;;;11.68;8.63;;;;;;;18.42;94.73;101486.00;5113535;28;20034;-72
2022/08/05 00:18:23;;;;;;;14.65;8.15;;;;;;;18.33;94.60;101467.53;5113247;28;20467;-76
2022/08/05 00:20:50;;;;;;;13.27;7.90;;;;;;;18.41;94.12;101484.34;5113318;28;20034;-72
2022/08/05 00:23:15;;;;;;;14.57;9.10;;;;;;;18.33;94.99;101472.75;5113442;28;20028;-72
2022/08/05 00:25:40;;;;;;;14.50;8.95;;;;;;;18.38;95.69;101476.75;5113525;28;20031;-73
2022/08/05 00:28:06;;;;;;;13.23;8.18;;;;;;;18.47;94.48;101484.63;5113384;28;20038;-77
2022/08/05 00:30:31;;;;;;;13.85;9.15;;;;;;;18.45;94.56;101486.56;5113229;28;20035;-76
2022/08/05 00:32:56;;;;;;;14.10;9.30;;;;;;;18.42;94.96;101475.53;5113034;28;20047;-72
2022/08/05 00:35:21;;;;;;;14.38;9.07;;;;;;;18.33;94.73;101464.09;5113054;28;20115;-76
2022/08/05 00:37:47;;;;;;;12.20;8.90;;;;;;;18.31;95.33;101472.06;5113280;28;20379;-75
2022/08/05 00:40:12;;;;;;;15.18;8.50;;;;;;;18.31;95.47;101479.09;5113292;28;20069;-72
2022/08/05 00:42:40;;;;;;;11.43;8.52;;;;;;;18.29;95.97;101494.09;5113123;28;20015;-72
2022/08/05 00:45:09;;;;;;;15.73;8.65;;;;;;;18.29;94.90;101494.09;5113103;28;20382;-73
2022/08/05 00:47:35;;;;;;;12.65;8.90;;;;;;;18.25;94.93;101493.50;5112912;28;20035;-75
2022/08/05 00:50:00;;;;;;;15.60;9.20;;;;;;;18.25;95.91;101482.22;5113190;28;20024;-72
2022/08/05 00:52:26;;;;;;;16.45;8.38;;;;;;;18.28;94.87;101498.44;5112978;28;20094;-73
2022/08/05 00:54:51;;;;;;;16.80;9.38;;;;;;;18.18;94.93;101489.72;5113115;28;20024;-72
2022/08/05 00:57:16;;;;;;;12.38;8.13;;;;;;;18.22;95.38;101485.09;5111827;28;20023;-75
2022/08/05 00:59:42;;;;;;;14.57;8.68;;;;;;;18.16;95.21;101485.59;5113185;28;20471;-71
2022/08/05 01:02:07;;;;;;;14.10;8.95;;;;;;;18.21;94.99;101494.72;5112729;28;20038;-73
2022/08/05 01:04:32;;;;;;;13.32;8.93;;;;;;;18.18;96.59;101483.69;5114468;28;20023;-75
2022/08/05 01:06:58;;;;;;;13.52;8.95;;;;;;;18.11;94.82;101479.94;5115921;28;20055;-77
2022/08/05 01:09:23;;;;;;;12.45;8.43;;;;;;;18.10;95.45;101489.56;5117072;28;20015;-72
2022/08/05 01:11:52;;;;;;;15.38;8.52;;;;;;;18.15;96.13;101505.69;5116978;28;20024;-71
2022/08/05 01:14:43;;;;;;;16.15;9.13;;;;;;;18.14;95.72;101508.44;5117057;28;20020;-72
2022/08/05 01:17:32;;;;;;;18.50;9.23;;;;;;;18.16;95.35;101512.56;5116752;28;20066;-77
2022/08/05 01:20:13;;;;;;;17.05;9.10;;;;;;;18.16;95.14;101519.59;5116885;28;20428;-71
2022/08/05 01:23:12;;;;;;;15.80;9.48;;;;;;;18.16;95.61;101520.41;5116857;28;20073;-76
2022/08/05 01:26:01;;;;;;;16.92;9.07;;;;;;;18.02;95.40;101499.84;5116717;28;20437;-74
2022/08/05 01:28:35;;;;;;;13.27;9.13;;;;;;;18.09;95.55;101532.31;5116790;28;20026;-76
2022/08/05 01:31:22;;;;;;;15.23;9.40;;;;;;;18.10;95.05;101535.78;5116525;28;20027;-77
2022/08/05 01:34:00;;;;;;;13.15;9.07;;;;;;;18.02;95.63;101533.81;5116712;28;20371;-72
2022/08/05 01:36:31;;;;;;;14.45;8.77;;;;;;;18.04;95.61;101543.19;5116505;28;20019;-76
2022/08/05 01:38:58;;;;;;;18.70;10.20;;;;;;;18.10;96.15;101554.09;5116503;28;20039;-72
2022/08/05 01:41:26;;;;;;;13.73;9.45;;;;;;;18.15;97.02;101559.75;5116554;28;20099;-72
2022/08/05 01:43:53;;;;;;;15.98;9.68;;;;;;;18.18;96.96;101559.50;5116432;28;20066;-77
2022/08/05 01:46:20;;;;;;;17.70;9.50;;;;;;;18.16;95.88;101550.94;5116450;28;20035;-76
2022/08/05 01:48:47;;;;;;;13.73;8.35;;;;;;;18.19;95.17;101555.91;5116598;28;20027;-76
2022/08/05 01:51:14;;;;;;;14.57;8.52;;;;;;;18.08;95.88;101535.06;5097488;28;20122;-76
2022/08/05 01:53:40;;;;;;;13.73;7.55;;;;;;;18.17;94.45;101542.97;5116194;28;20059;-71
2022/08/05 01:56:06;;;;;;;19.15;8.90;;;;;;;18.09;94.60;101540.16;5116265;28;20081;-72
2022/08/05 01:58:33;;;;;;;14.38;8.18;;;;;;;18.12;95.27;101544.34;5116088;28;20024;-76
2022/08/05 02:01:01;;;;;;;11.95;7.90;;;;;;;18.09;95.05;101526.28;5115976;28;20096;-76
2022/08/05 02:03:31;;;;;;;15.15;8.10;;;;;;;17.97;96.68;101504.59;5115949;28;20532;-72
2022/08/05 02:05:57;;;;;;;17.60;9.02;;;;;;;18.10;94.97;101526.16;5116021;28;20028;-76
2022/08/05 02:08:23;;;;;;;13.00;8.60;;;;;;;17.98;95.06;101507.09;5115999;28;20098;-76
2022/08/05 02:10:52;;;;;;;14.20;8.82;;;;;;;17.95;96.83;101496.06;5116081;28;20051;-74
2022/08/05 02:13:23;;;;;;;18.73;8.23;;;;;;;18.00;96.25;101510.44;5115625;28;20024;-77
2022/08/05 02:15:57;;;;;;;14.88;8.02;;;;;;;18.00;96.12;101514.81;5114935;28;20094;-76
2022/08/05 02:18:33;;;;;;;16.98;8.82;;;;;;;18.00;96.10;101513.03;5115713;28;20077;-76
2022/08/05 02:21:41;;;;;;;13.45;7.97;;;;;;;18.02;95.41;101500.66;5115546;28;20055;-76
2022/08/05 02:24:10;;;;;;;16.45;9.18;;;;;;;17.91;95.79;101481.63;5052767;28;20103;-77
2022/08/05 02:26:44;;;;;;;14.05;8.20;;;;;;;17.77;94.18;101501.88;5052673;28;20191;-76
2022/08/05 02:29:11;;;;;;;14.43;7.75;;;;;;;17.80;95.03;101515.63;5052878;28;20133;-75
2022/08/05 02:31:39;;;;;;;12.45;7.88;;;;;;;17.66;94.65;101498.44;5052545;28;20057;-76
2022/08/05 02:34:08;;;;;;;14.60;8.40;;;;;;;17.66;95.81;101488.00;5052826;28;20119;-76
2022/08/05 02:36:37;;;;;;;14.18;8.07;;;;;;;17.75;95.12;101509.00;5052389;28;20504;-76
2022/08/05 02:39:06;;;;;;;13.13;7.82;;;;;;;17.71;94.08;101512.00;5052587;28;20064;-77
2022/08/05 02:41:32;;;;;;;13.55;8.30;;;;;;;17.66;95.75;101520.19;5052506;28;20052;-75
2022/08/05 02:44:00;;;;;;;14.40;7.97;;;;;;;17.62;94.07;101516.16;5052516;28;20025;-77
2022/08/05 02:46:27;;;;;;;12.82;8.23;;;;;;;17.76;95.81;101539.41;5052640;28;20065;-76
2022/08/05 02:48:53;;;;;;;15.80;7.32;;;;;;;17.78;94.06;101537.47;5052515;28;20528;-77
2022/08/05 02:51:19;;;;;;;13.45;8.30;;;;;;;17.69;94.59;101514.72;5052034;28;20025;-71
2022/08/05 02:53:46;;;;;;;17.30;8.60;;;;;;;17.76;95.76;101525.50;5057335;28;20104;-77
2022/08/05 02:56:12;;;;;;;14.13;8.15;;;;;;;17.83;96.92;101531.91;5115211;28;20069;-72
2022/08/05 02:58:42;;;;;;;14.20;8.35;;;;;;;17.84;96.96;101533.53;5115090;28;20024;-76
2022/08/05 03:01:16;;;;;;;15.68;8.52;;;;;;;17.82;95.09;101524.19;5114908;28;20055;-74
2022/08/05 03:03:42;;;;;;;12.52;8.20;;;;;;;17.82;95.80;101511.94;5115038;28;20038;-77
2022/08/05 03:06:11;;;;;;;15.20;8.15;;;;;;;17.76;95.65;101483.72;5114669;28;20035;-71
2022/08/05 03:08:38;;;;;;;15.70;7.82;;;;;;;17.63;95.39;101468.19;5114590;28;20055;-76
2022/08/05 03:11:03;;;;;;;14.98;8.02;;;;;;;17.71;95.82;101486.72;5114897;28;20104;-77
2022/08/05 03:13:29;;;;;;;18.60;8.82;;;;;;;17.62;96.40;101470.94;5114629;28;20106;-75
2022/08/05 03:15:54;;;;;;;12.38;8.00;;;;;;;17.81;96.37;101505.06;5114799;28;20031;-75
2022/08/05 03:18:20;;;;;;;13.68;7.78;;;;;;;17.75;95.03;101500.34;5114607;28;20019;-72
2022/08/05 03:20:45;;;;;;;17.20;8.10;;;;;;;17.75;93.77;101505.56;5114331;28;20024;-76
2022/08/05 03:23:12;;;;;;;15.27;7.75;;;;;;;17.56;93.20;101500.16;5114439;28;20032;-75
2022/08/05 03:25:38;;;;;;;13.30;7.60;;;;;;;17.51;93.69;101497.94;5114824;28;20352;-71
2022/08/05 03:28:06;;;;;;;15.73;7.85;;;;;;;17.69;94.02;101529.53;5114437;28;20104;-77
2022/08/05 03:30:32;;;;;;;16.77;8.20;;;;;;;17.46;95.19;101487.84;5114492;28;20023;-76
2022/08/05 03:32:59;;;;;;;14.20;8.18;;;;;;;17.65;95.17;101520.31;5112820;28;20410;-76
2022/08/05 03:35:26;;;;;;;11.70;8.13;;;;;;;17.58;94.03;101517.34;5114184;28;20102;-76
2022/08/05 03:37:58;;;;;;;14.00;7.88;;;;;;;17.65;95.22;101528.97;5113874;28;20023;-76
2022/08/05 03:40:24;;;;;;;12.55;7.95;;;;;;;17.72;94.79;101543.22;5114351;28;20023;-77
2022/08/05 03:42:50;;;;;;;15.32;8.07;;;;;;;17.71;95.47;101541.56;5114184;28;20077;-76
2022/08/05 03:45:15;;;;;;;14.70;8.65;;;;;;;17.72;94.99;101548.44;5114200;28;20490;-76
2022/08/05 03:47:41;;;;;;;18.20;9.05;;;;;;;17.72;94.63;101534.56;5114085;28;20032;-75
2022/08/05 03:50:06;;;;;;;15.68;8.60;;;;;;;17.71;93.85;101532.91;5113722;28;20072;-77
2022/08/05 03:52:46;;;;;;;15.20;8.82;;;;;;;17.69;93.54;101530.41;5113913;28;20110;-77
2022/08/05 03:55:23;;;;;;;14.55;8.57;;;;;;;17.61;95.60;101518.91;5113804;28;20027;-77
2022/08/05 03:57:51;;;;;;;15.98;9.40;;;;;;;17.68;96.93;101525.28;5113981;28;20480;-77
2022/08/05 04:00:18;;;;;;;15.80;8.88;;;;;;;17.61;93.45;101519.75;5113952;28;20027;-77
2022/08/05 04:02:48;;;;;;;12.25;7.97;;;;;;;17.60;94.71;101512.00;5113730;28;20043;-73
2022/08/05 04:05:15;;;;;;;15.07;8.40;;;;;;;17.59;95.69;101495.50;5113661;28;20019;-76
2022/08/05 04:07:41;;;;;;;16.52;8.43;;;;;;;17.55;94.95;101495.91;5113607;28;20031;-71
2022/08/05 04:10:08;;;;;;;17.17;8.50;;;;;;;17.46;94.45;101503.53;5113664;28;20035;-74
2022/08/05 04:12:34;;;;;;;18.90;8.98;;;;;;;17.38;96.07;101499.88;5113531;28;20114;-76
2022/08/05 04:14:59;;;;;;;18.40;8.50;;;;;;;17.36;95.41;101505.22;5113550;28;20028;-76
2022/08/05 04:17:26;;;;;;;16.52;9.55;;;;;;;17.35;94.49;101502.72;5113246;28;20022;-75
2022/08/05 04:19:51;;;;;;;12.93;9.00;;;;;;;17.17;95.34;101490.22;5113291;28;20034;-76
2022/08/05 04:22:17;;;;;;;17.75;8.55;;;;;;;17.17;96.27;101512.88;5113409;28;20031;-76
2022/08/05 04:24:44;;;;;;;12.77;8.32;;;;;;;17.19;97.25;101521.41;5113672;28;20024;-76
2022/08/05 04:27:10;;;;;;;14.63;8.70;;;;;;;16.99;97.63;101486.44;5113402;28;20023;-74
2022/08/05 04:29:36;;;;;;;13.07;8.93;;;;;;;17.19;98.40;101526.63;5113358;28;20459;-76
2022/08/05 04:32:02;;;;;;;13.75;8.80;;;;;;;17.17;98.17;101526.75;5112914;28;20050;-76
2022/08/05 04:34:27;;;;;;;15.73;8.75;;;;;;;17.12;98.73;101533.28;5113348;28;20026;-75
2022/08/05 04:36:53;;;;;;;13.23;8.75;;;;;;;17.17;98.13;101536.34;5113354;28;20467;-77
2022/08/05 04:39:19;;;;;;;19.55;10.00;;;;;;;17.14;98.74;101542.66;5112755;28;20028;-76
2022/08/05 04:41:45;;;;;;;15.95;9.93;;;;;;;17.19;99.00;101544.88;5113619;28;20028;-76
2022/08/05 04:44:10;;;;;;;18.13;10.60;;;;;;;17.10;98.37;101522.94;5113164;28;20115;-75
2022/08/05 04:46:39;;;;;;;16.17;9.25;;;;;;;17.26;98.22;101540.84;5111470;28;20122;-75
2022/08/05 04:49:06;;;;;;;19.67;9.85;;;;;;;17.29;96.77;101537.16;5113199;28;20501;-76
2022/08/05 04:51:31;;;;;;;14.23;9.85;;;;;;;17.28;96.81;101532.88;5113072;28;20506;-76
2022/08/05 04:54:00;;;;;;;16.50;9.20;;;;;;;17.35;96.07;101539.28;5113064;28;20031;-76
2022/08/05 04:56:25;;;;;;;14.15;9.75;;;;;;;17.33;97.13;101542.03;5113072;28;20023;-76
2022/08/05 04:58:51;;;;;;;16.98;10.45;;;;;;;17.20;96.55;101510.00;5113096;28;20119;-76
2022/08/05 05:01:16;;;;;;;16.67;9.00;;;;;;;17.34;96.18;101521.97;5113013;28;20024;-76
2022/08/05 05:03:42;;;;;;;14.02;8.85;;;;;;;17.39;96.31;101530.25;5112864;28;20409;-76
2022/08/05 05:06:11;;;;;;;11.60;6.85;;;;;;;17.59;95.82;101521.63;5113088;28;20047;-76
2022/08/05 05:08:37;;;;;;;14.68;7.85;;;;;;;17.83;94.81;101531.91;5112758;28;20020;-77
2022/08/05 05:11:03;;;;;;;14.65;7.43;;;;;;;17.80;93.03;101529.53;5112968;28;20024;-78
2022/08/05 05:13:28;;;;;;;11.30;7.50;;;;;;;17.83;94.65;101531.06;5112816;28;20039;-74
2022/08/05 05:15:54;;;;;;;12.98;7.70;;;;;;;17.82;93.47;101527.63;5112753;28;20028;-73
2022/08/05 05:18:20;;;;;;;14.00;8.05;;;;;;;17.77;93.57;101521.94;5112719;28;20016;-78
2022/08/05 05:20:45;;;;;;;13.70;7.72;;;;;;;17.96;93.15;101534.31;5113127;28;20024;-77
2022/08/05 05:23:12;;;;;;;14.45;7.70;;;;;;;17.99;92.25;101542.75;5112810;28;20035;-78
2022/08/05 05:25:39;;;;;;;13.93;7.70;;;;;;;18.09;91.92;101550.63;5112743;28;20026;-80
2022/08/05 05:28:04;;;;;;;11.77;7.47;;;;;;;18.00;92.23;101526.09;5112786;28;20104;-76
2022/08/05 05:30:30;;;;;;;13.95;7.25;;;;;;;17.97;90.32;101541.19;5112633;28;20454;-74
2022/08/05 05:32:55;;;;;;;13.95;6.80;;;;;;;17.94;91.45;101550.13;5112148;28;20059;-76
2022/08/05 05:35:21;;;;;;;11.32;6.00;;;;;;;18.06;92.21;101549.09;5112486;28;20130;-78
2022/08/05 05:37:48;;;;;;;12.05;7.00;;;;;;;17.83;91.50;101560.63;5112511;28;20068;-79
2022/08/05 05:40:17;;;;;;;12.45;5.45;;;;;;;17.84;92.70;101535.34;5112567;28;20035;-78
2022/08/05 05:42:43;;;;;;;9.57;6.03;;;;;;;17.94;92.37;101557.13;5112426;28;20468;-78
2022/08/05 05:45:09;;;;;;;11.55;7.18;;;;;;;17.86;92.22;101564.78;5112420;28;20106;-75
2022/08/05 05:47:35;;;;;;;9.88;6.45;;;;;;;17.91;92.94;101568.69;5111562;28;20026;-73
2022/08/05 05:50:01;;;;;;;13.18;6.43;;;;;;;17.73;92.05;101539.66;5113042;28;20375;-72
2022/08/05 05:52:26;;;;;;;11.93;6.57;;;;;;;17.75;92.05;101579.53;5115211;28;20031;-76
2022/08/05 05:54:51;;;;;;;9.55;6.70;;;;;;;17.76;92.56;101581.19;5116044;28;20024;-73
2022/08/05 05:57:18;;;;;;;14.13;7.07;;;;;;;17.64;91.89;101578.72;5114639;28;20038;-78
2022/08/05 05:59:43;;;;;;;12.57;6.32;;;;;;;17.74;93.00;101585.72;5115963;28;20019;-69
2022/08/05 06:02:08;;;;;;;14.63;6.50;;;;;;;17.70;92.13;101554.75;5115889;28;20546;-73
2022/08/05 06:04:34;;;;;;;12.18;6.38;;;;;;;17.68;92.34;101556.63;5115821;28;20020;-70
2022/08/05 06:06:59;;;;;;;10.98;5.88;;;;;;;18.01;91.66;101592.28;5115878;28;20024;-77
2022/08/05 06:09:24;;;;;;;12.73;6.43;;;;;;;18.05;90.98;101594.50;5115696;28;20026;-76
2022/08/05 06:11:50;;;;;;;13.30;6.53;;;;;;;18.03;90.00;101580.72;5115444;28;20031;-76
2022/08/05 06:14:15;;;;;;;11.10;6.47;;;;;;;17.82;89.63;101555.53;5115800;28;20024;-74
2022/08/05 06:16:40;;;;;;;9.68;4.82;;;;;;;17.96;90.26;101556.03;5115853;28;20036;-72
2022/08/05 06:19:06;;;;;;;12.82;6.78;;;;;;;18.08;89.94;101579.50;5115673;28;20020;-71
2022/08/05 06:21:31;;;;;;;11.38;5.45;;;;;;;18.14;90.24;101579.84;5114260;28;20067;-73
2022/08/05 06:23:57;;;;;;;14.02;6.00;;;;;;;18.16;89.95;101582.31;5115523;28;20055;-71
2022/08/05 06:26:22;;;;;;;11.73;6.25;;;;;;;18.01;90.34;101556.50;5115565;28;20027;-74
2022/08/05 06:28:48;;;;;;;10.30;6.15;;;;;;;18.19;89.99;101589.91;5114531;28;20460;-73
2022/08/05 06:31:13;;;;;;;13.45;6.57;;;;;;;18.23;88.81;101586.09;5115329;28;20043;-73
2022/08/05 06:33:38;;;;;;;14.52;6.47;;;;;;;18.33;88.39;101579.97;5115449;28;20027;-78
2022/08/05 06:36:04;;;;;;;14.27;8.52;;;;;;;18.66;88.70;101600.81;5115272;28;20028;-75
2022/08/05 06:38:29;;;;;;;13.10;6.72;;;;;;;19.25;86.18;101598.28;5115304;28;20054;-78
2022/08/05 06:40:54;;;;;;;11.95;5.82;;;;;;;19.86;81.87;101600.75;5115488;28;20447;-79
2022/08/05 06:43:20;;;;;;;9.75;5.72;;;;;;;19.72;80.39;101596.75;5115256;28;20038;-75
2022/08/05 06:45:45;;;;;;;10.32;5.80;;;;;;;19.54;82.18;101610.63;5115242;28;20027;-80
2022/08/05 06:48:10;;;;;;;12.55;6.22;;;;;;;19.53;80.82;101607.16;5115214;28;20471;-72
2022/08/05 06:50:36;;;;;;;12.57;6.18;;;;;;;19.55;81.06;101613.09;5115061;28;20527;-72
2022/08/05 06:53:01;;;;;;;10.52;5.43;;;;;;;19.68;81.19;101618.94;5115023;28;20072;-76
2022/08/05 06:55:26;;;;;;;9.77;4.93;;;;;;;19.66;81.73;101618.25;5114942;28;20103;-73
2022/08/05 06:57:52;;;;;;;8.68;4.88;;;;;;;19.58;81.29;101612.03;5115174;28;20016;-72
2022/08/05 07:00:17;;;;;;;11.27;5.30;;;;;;;19.62;81.26;101619.47;5115228;28;20401;-71
2022/08/05 07:02:43;;;;;;;10.07;5.70;;;;;;;19.62;82.37;101627.34;5114728;28;20390;-76
2022/08/05 07:05:12;;;;;;;10.43;5.88;;;;;;;19.48;81.97;101639.03;5114824;28;20023;-75
2022/08/05 07:07:39;;;;;;;11.82;6.30;;;;;;;19.38;83.40;101629.50;5114530;28;20019;-73
2022/08/05 07:10:07;;;;;;;14.98;6.65;;;;;;;19.33;81.67;101636.91;5114572;28;20024;-73
2022/08/05 07:18:01;;;;;;;10.95;6.30;;;;;;;19.57;80.03;101642.66;5114673;28;20038;-77
2022/08/05 07:20:26;;;;;;;9.00;4.88;;;;;;;19.71;80.84;101642.25;5114587;27;20027;-72
2022/08/05 07:22:51;;;;;;;11.63;4.90;;;;;;;20.00;80.92;101651.94;5114656;28;20034;-76
2022/08/05 07:25:17;;;;;;;10.07;6.00;;;;;;;20.06;76.45;101656.63;5113322;28;20435;-73
2022/08/05 07:27:42;;;;;;;10.25;4.90;;;;;;;19.97;77.27;101646.97;5114364;28;20409;-72
2022/08/05 07:30:08;;;;;;;9.80;5.00;;;;;;;19.83;76.49;101647.38;5112946;28;20119;-73
2022/08/05 07:32:37;;;;;;;9.27;4.35;;;;;;;19.88;77.25;101666.97;5113935;28;20113;-73
2022/08/05 07:35:07;;;;;;;11.48;5.00;;;;;;;19.84;77.73;101660.34;5114139;28;20138;-73
2022/08/05 07:37:32;;;;;;;10.07;4.15;;;;;;;19.90;76.80;101651.94;5113972;28;20028;-73
2022/08/05 07:39:58;;;;;;;10.43;4.57;;;;;;;20.15;77.29;101665.44;5113912;28;20023;-79
2022/08/05 07:42:23;;;;;;;7.70;3.40;;;;;;;20.59;75.31;101666.69;5114082;28;20035;-72
2022/08/05 07:44:48;;;;;;;9.50;3.70;;;;;;;20.77;72.65;101672.03;5113987;28;20077;-77
2022/08/05 07:47:14;;;;;;;7.30;3.70;;;;;;;20.83;70.79;101661.78;5113819;28;20028;-78
2022/08/05 07:49:39;;;;;;;7.28;3.25;;;;;;;20.96;70.61;101676.41;5112329;28;20479;-78
2022/08/05 07:52:04;;;;;;;8.02;3.50;;;;;;;21.14;70.99;101677.31;5113735;28;20076;-78
2022/08/05 07:54:30;;;;;;;8.65;3.75;;;;;;;21.18;71.09;101679.50;5113687;28;20119;-72
2022/08/05 07:56:55;;;;;;;8.23;3.70;;;;;;;21.19;71.56;101654.88;5113908;28;20030;-72
2022/08/05 07:59:21;;;;;;;7.28;3.78;;;;;;;21.24;69.39;101678.09;5113939;28;20043;-77
2022/08/05 08:01:46;;;;;;;8.80;3.67;;;;;;;21.27;70.58;101679.63;5113772;28;20028;-73
2022/08/05 08:04:11;;;;;;;6.95;3.40;;;;;;;21.44;69.35;101684.94;5113300;28;20102;-71
2022/08/05 08:06:36;;;;;;;6.80;2.72;;;;;;;21.54;65.87;101681.44;5113517;28;20055;-71
2022/08/05 08:09:02;;;;;;;8.15;2.97;;;;;;;21.80;67.33;101687.63;5113597;28;20051;-74
2022/08/05 08:11:28;;;;;;;6.78;2.60;;;;;;;21.87;63.42;101654.50;5113420;28;20062;-72
2022/08/05 08:13:53;;;;;;;6.05;2.83;;;;;;;22.31;65.52;101694.03;5112600;28;20028;-72
2022/08/05 08:16:19;;;;;;;5.18;2.72;;;;;;;22.29;64.69;101693.34;5113499;28;20027;-72
2022/08/05 08:18:44;;;;;;;7.38;3.03;;;;;;;21.86;63.45;101676.50;5113220;28;20098;-72
2022/08/05 08:21:10;;;;;;;6.93;2.90;;;;;;;21.75;63.72;101695.97;5111973;28;20110;-72
2022/08/05 08:23:35;;;;;;;7.53;2.97;;;;;;;21.59;63.40;101708.09;5113344;28;20069;-72
2022/08/05 08:26:00;;;;;;;10.20;3.50;;;;;;;21.66;65.09;101709.16;5113171;28;20026;-71
2022/08/05 08:28:26;;;;;;;8.38;3.33;;;;;;;21.64;63.56;101711.13;5113300;28;20051;-72
2022/08/05 08:30:51;;;;;;;5.50;3.08;;;;;;;21.63;64.65;101717.31;5112960;28;20221;-73
2022/08/05 08:33:18;;;;;;;6.78;2.72;;;;;;;21.59;64.55;101713.34;5113162;28;20155;-72
2022/08/05 08:35:43;;;;;;;5.13;2.72;;;;;;;21.45;62.90;101699.72;5113055;28;20444;-71
2022/08/05 08:38:08;;;;;;;6.60;2.70;;;;;;;21.54;65.31;101721.69;5112133;28;20066;-69
2022/08/05 08:40:34;;;;;;;6.95;2.80;;;;;;;21.51;63.80;101719.31;5113390;28;20020;-71
2022/08/05 08:43:00;;;;;;;4.10;2.47;;;;;;;21.44;63.86;101713.03;5113464;28;20020;-71
2022/08/05 08:45:26;;;;;;;6.80;2.70;;;;;;;21.82;66.00;101729.53;5112908;28;20023;-71
2022/08/05 08:47:53;;;;;;;4.38;2.42;;;;;;;22.09;63.43;101723.44;5112706;28;20023;-71
2022/08/05 08:50:20;;;;;;;4.60;2.53;;;;;;;22.20;63.87;101723.22;5112803;28;20019;-71
2022/08/05 08:52:51;;;;;;;6.95;2.80;;;;;;;22.46;64.48;101728.53;5113062;28;20111;-72
2022/08/05 08:55:18;;;;;;;;;;;;;;;22.82;65.43;101729.31;5113259;28;20467;-70
2022/08/05 08:57:44;;;;;;;7.07;2.70;;;;;;;22.89;62.41;101735.63;5112819;28;19934;-68
2022/08/05 09:00:10;;;;;;;8.15;3.00;;;;;;;22.94;60.96;101741.25;5112636;28;20031;-70
2022/08/05 09:02:36;;;;;;;8.23;3.00;;;;;;;22.87;61.63;101748.13;5112849;28;20012;-70
2022/08/05 09:05:02;;;;;;;5.18;3.13;;;;;;;22.80;62.16;101752.31;5112803;28;20405;-71
2022/08/05 09:07:27;;;;;;;5.32;2.80;;;;;;;22.53;60.01;101755.91;5112771;28;20028;-71
2022/08/05 09:09:53;;;;;;;5.32;2.80;;;;;;;22.40;64.93;101756.28;5112833;28;20485;-70
2022/08/05 09:12:18;;;;;;;11.25;2.95;;;;;;;22.43;62.86;101763.88;5112814;28;20133;-71
2022/08/05 09:14:44;;;;;;;4.65;2.90;;;;;;;22.35;62.33;101773.50;5112550;28;20073;-70
2022/08/05 09:17:11;;;;;;;4.78;2.80;;;;;;;22.17;64.64;101773.50;5112472;28;20035;-69
2022/08/05 09:19:36;;;;;;;5.75;2.50;;;;;;;21.85;64.70;101785.31;5112689;28;20051;-70
2022/08/05 09:22:02;;;;;;;8.23;2.50;;;;;;;21.59;65.17;101784.31;5112653;28;20036;-69
2022/08/05 09:24:28;;;;;;;3.85;2.25;;;;;;;21.57;66.23;101778.38;5112989;28;20036;-70
2022/08/05 09:26:56;;;;;;;6.63;2.80;;;;;;;21.53;65.85;101784.88;5116261;28;20020;-70
2022/08/05 09:29:37;;;;;;;5.30;2.13;;;;;;;21.57;66.56;101776.56;5116802;28;20417;-69
2022/08/05 09:32:05;;;;;;;7.25;2.70;;;;;;;21.62;65.99;101770.88;5116596;28;20398;-70
2022/08/05 09:34:51;;;;;;;5.53;2.17;;;;;;;21.90;65.80;101769.06;5116625;28;20043;-69
2022/08/05 09:37:22;;;;;;;6.10;2.75;;;;;;;21.96;63.53;101781.63;5116771;28;20106;-70
2022/08/05 09:39:47;;;;;;;5.10;2.35;;;;;;;21.97;62.59;101764.88;5116342;28;20023;-70
2022/08/05 09:42:24;;;;;;;5.80;2.20;;;;;;;22.20;64.27;101773.19;5116160;28;20031;-71
2022/08/05 09:44:52;;;;;;;5.07;2.05;;;;;;;22.30;64.29;101789.75;5116374;28;20111;-69
2022/08/05 09:47:20;;;;;;;7.30;2.60;;;;;;;22.31;62.28;101794.03;5116182;27;20020;-69
2022/08/05 09:49:56;;;;;;;5.72;2.20;;;;;;;22.37;62.86;101789.97;5116514;28;20034;-72
2022/08/05 09:52:34;;;;;;;4.47;2.20;;;;;;;22.34;61.88;101785.84;5115355;28;20063;-69
2022/08/05 09:55:04;;;;;;;5.10;2.10;;;;;;;22.41;61.09;101773.72;5116163;28;20027;-69
2022/08/05 09:57:32;;;;;;;3.80;1.45;;;;;;;22.53;58.81;101780.44;5115882;28;20034;-69
2022/08/05 10:00:00;;;;;;;4.70;1.58;;;;;;;22.70;53.28;101799.81;5116081;28;20028;-71
2022/08/05 10:02:38;;;;;;;4.15;1.40;;;;;;;22.57;55.16;101786.22;5116190;28;20020;-71
2022/08/05 10:05:30;;;;;;;3.63;1.20;;;;;;;22.63;52.41;101800.59;5116100;28;20031;-71
2022/08/05 10:07:58;;;;;;;4.15;1.30;;;;;;;22.75;56.80;101799.38;5092833;28;20452;-69
2022/08/05 10:10:31;;;;;;;4.50;1.27;;;;;;;22.81;53.17;101804.00;5095847;28;20039;-71
2022/08/05 10:12:58;;;;;;;3.13;1.30;;;;;;;22.77;53.46;101806.13;5095231;28;20031;-72
2022/08/05 10:15:27;;;;;;;2.80;1.50;;;;;;;22.71;54.32;101798.81;5095310;28;20023;-72
2022/08/05 10:18:03;;;;;;;3.40;1.10;;;;;;;22.71;53.86;101808.53;5095385;28;20494;-70
2022/08/05 10:20:30;;;;;;;3.30;1.10;;;;;;;22.83;51.49;101800.25;5095298;28;20488;-70
2022/08/05 10:22:56;;;;;;;5.20;1.13;;;;;;;23.25;47.83;101815.38;5095074;28;20044;-71
2022/08/05 10:25:22;;;;;;;4.18;0.98;;;;;;;23.60;47.47;101816.28;5095440;28;20111;-71
2022/08/05 10:27:48;;;;;;;1.63;0.80;;;;;;;23.69;44.63;101812.66;5095035;28;20126;-72
2022/08/05 10:30:13;;;;;;;1.80;0.88;;;;;;;23.55;45.58;101808.81;5095103;28;20052;-71
2022/08/05 10:32:39;;;;;;;2.33;0.98;;;;;;;23.61;45.27;101817.94;5094752;28;20610;-71
2022/08/05 10:35:04;;;;;;;2.38;0.85;;;;;;;23.69;44.77;101826.69;5094959;28;20491;-71
2022/08/05 10:37:32;;;;;;;2.55;1.08;;;;;;;23.40;45.01;101805.09;5093898;28;20467;-71
2022/08/05 10:40:03;;;;;;;2.30;0.73;;;;;;;23.72;46.88;101821.13;5095006;28;20475;-71
2022/08/05 10:42:30;;;;;;;3.03;1.00;;;;;;;23.87;45.99;101825.78;5093330;28;20032;-71
2022/08/05 10:44:56;;;;;;;1.67;0.98;;;;;;;23.89;45.35;101837.00;5094779;28;20024;-70
2022/08/05 10:47:31;;;;;;;2.50;1.10;;;;;;;23.85;46.41;101833.03;5094859;28;20528;-70
2022/08/05 10:50:14;;;;;;;2.95;0.98;;;;;;;23.88;43.52;101832.69;5094549;28;20028;-74
2022/08/05 10:52:46;;;;;;;3.67;0.80;;;;;;;23.90;43.63;101831.56;5094611;28;20024;-73
2022/08/05 10:55:12;;;;;;;1.92;0.80;;;;;;;24.12;42.29;101843.34;5094572;28;20035;-74
2022/08/05 10:57:40;;;;;;;1.92;0.70;;;;;;;23.96;39.07;101830.91;5094486;28;20460;-71
2022/08/05 11:00:18;;;;;;;2.92;0.77;;;;;;;23.75;39.87;101851.63;5094368;28;20024;-71
2022/08/05 11:03:15;;;;;;;3.15;0.80;;;;;;;23.79;42.92;101847.66;5094506;28;20044;-72
2022/08/05 11:06:04;;;;;;;0.82;0.60;;;;;;;23.84;40.20;101852.47;5011939;28;20046;-71
2022/08/05 11:08:30;;;;;;;2.55;0.77;;;;;;;23.68;39.41;101848.78;5012182;28;20034;-71
2022/08/05 11:11:33;;;;;;;1.88;0.73;;;;;;;23.70;40.55;101849.47;5012285;28;20096;-71
2022/08/05 11:14:00;;;;;;;1.92;0.80;;;;;;;23.59;39.37;101847.06;5011918;28;20506;-72
2022/08/05 11:16:26;;;;;;;2.35;0.80;;;;;;;23.83;44.08;101853.47;5012006;28;20418;-70
2022/08/05 11:19:29;;;;;;;4.72;0.90;;;;;;;24.15;42.21;101861.50;5012123;28;20073;-72
2022/08/05 11:22:15;;;;;;;3.75;0.80;;;;;;;24.24;39.52;101863.19;5012025;28;20042;-70
2022/08/05 11:24:43;;;;;;;2.28;0.80;;;;;;;24.00;37.14;101852.56;5011953;28;20041;-71
2022/08/05 11:27:30;;;;;;;3.60;0.82;;;;;;;23.79;40.39;101868.75;5012003;28;20037;-76
2022/08/05 11:29:59;;;;;;;1.23;0.70;;;;;;;23.73;39.32;101870.25;5011784;28;20045;-72